sensor_id;sensor_type;location;lat;lon;timestamp;P1;durP1;ratioP1;P2;durP2;ratioP2
4422;SDS011;2224;49.814;8.650;2023-09-19T00:00:22;4.43;;;1.70;;
4422;SDS011;2224;49.814;8.650;2023-09-19T00:02:56;2.80;;;1.53;;
4422;SDS011;2224;49.814;8.650;2023-09-19T00:05:24;4.07;;;1.80;;
4422;SDS011;2224;49.814;8.650;2023-09-19T00:07:53;2.50;;;1.47;;
4422;SDS011;2224;49.814;8.650;2023-09-19T00:10:19;3.27;;;1.50;;
4422;SDS011;2224;49.814;8.650;2023-09-19T00:12:45;5.10;;;1.60;;
4422;SDS011;2224;49.814;8.650;2023-09-19T00:15:10;3.07;;;1.80;;
4422;SDS011;2224;49.814;8.650;2023-09-19T00:17:36;3.80;;;1.73;;
4422;SDS011;2224;49.814;8.650;2023-09-19T00:20:02;2.17;;;1.50;;
4422;SDS011;2224;49.814;8.650;2023-09-19T00:22:32;2.70;;;1.67;;
4422;SDS011;2224;49.814;8.650;2023-09-19T00:24:58;3.43;;;1.57;;
4422;SDS011;2224;49.814;8.650;2023-09-19T00:27:23;3.23;;;1.80;;
4422;SDS011;2224;49.814;8.650;2023-09-19T00:29:48;1.50;;;1.40;;
4422;SDS011;2224;49.814;8.650;2023-09-19T00:32:13;2.23;;;1.77;;
4422;SDS011;2224;49.814;8.650;2023-09-19T00:34:39;3.63;;;2.47;;
4422;SDS011;2224;49.814;8.650;2023-09-19T00:37:04;3.57;;;1.60;;
4422;SDS011;2224;49.814;8.650;2023-09-19T00:39:29;5.30;;;1.73;;
4422;SDS011;2224;49.814;8.650;2023-09-19T00:41:56;3.10;;;1.70;;
4422;SDS011;2224;49.814;8.650;2023-09-19T00:44:22;2.00;;;1.53;;
4422;SDS011;2224;49.814;8.650;2023-09-19T00:46:48;2.73;;;1.87;;
4422;SDS011;2224;49.814;8.650;2023-09-19T00:49:15;6.53;;;1.70;;
4422;SDS011;2224;49.814;8.650;2023-09-19T00:51:40;4.87;;;1.80;;
4422;SDS011;2224;49.814;8.650;2023-09-19T00:54:10;3.17;;;1.90;;
4422;SDS011;2224;49.814;8.650;2023-09-19T00:56:38;3.73;;;1.80;;
4422;SDS011;2224;49.814;8.650;2023-09-19T00:59:05;2.10;;;1.70;;
4422;SDS011;2224;49.814;8.650;2023-09-19T01:01:31;2.67;;;1.80;;
4422;SDS011;2224;49.814;8.650;2023-09-19T01:03:56;2.70;;;1.20;;
4422;SDS011;2224;49.814;8.650;2023-09-19T01:06:22;1.80;;;1.63;;
4422;SDS011;2224;49.814;8.650;2023-09-19T01:08:47;3.30;;;2.10;;
4422;SDS011;2224;49.814;8.650;2023-09-19T01:11:14;2.57;;;2.00;;
4422;SDS011;2224;49.814;8.650;2023-09-19T01:17:06;2.50;;;1.90;;
4422;SDS011;2224;49.814;8.650;2023-09-19T01:31:01;3.30;;;1.53;;
4422;SDS011;2224;49.814;8.650;2023-09-19T01:33:28;3.03;;;1.90;;
4422;SDS011;2224;49.814;8.650;2023-09-19T01:35:59;2.30;;;1.97;;
4422;SDS011;2224;49.814;8.650;2023-09-19T01:38:24;2.23;;;1.57;;
4422;SDS011;2224;49.814;8.650;2023-09-19T01:41:11;2.37;;;1.93;;
4422;SDS011;2224;49.814;8.650;2023-09-19T01:43:38;2.67;;;1.83;;
4422;SDS011;2224;49.814;8.650;2023-09-19T01:46:09;5.23;;;2.97;;
4422;SDS011;2224;49.814;8.650;2023-09-19T01:48:42;4.73;;;2.30;;
4422;SDS011;2224;49.814;8.650;2023-09-19T01:51:13;5.70;;;2.20;;
4422;SDS011;2224;49.814;8.650;2023-09-19T01:56:32;4.10;;;2.57;;
4422;SDS011;2224;49.814;8.650;2023-09-19T01:59:04;3.27;;;1.90;;
4422;SDS011;2224;49.814;8.650;2023-09-19T02:01:32;4.67;;;2.77;;
4422;SDS011;2224;49.814;8.650;2023-09-19T02:03:58;3.93;;;2.23;;
4422;SDS011;2224;49.814;8.650;2023-09-19T02:06:23;3.23;;;2.20;;
4422;SDS011;2224;49.814;8.650;2023-09-19T02:08:51;4.97;;;2.60;;
4422;SDS011;2224;49.814;8.650;2023-09-19T02:11:17;3.60;;;2.47;;
4422;SDS011;2224;49.814;8.650;2023-09-19T02:13:42;4.80;;;2.57;;
4422;SDS011;2224;49.814;8.650;2023-09-19T02:16:08;3.23;;;2.50;;
4422;SDS011;2224;49.814;8.650;2023-09-19T02:18:35;5.07;;;2.53;;
4422;SDS011;2224;49.814;8.650;2023-09-19T02:21:01;3.50;;;2.30;;
4422;SDS011;2224;49.814;8.650;2023-09-19T02:23:27;2.90;;;2.27;;
4422;SDS011;2224;49.814;8.650;2023-09-19T02:25:56;2.90;;;2.60;;
4422;SDS011;2224;49.814;8.650;2023-09-19T02:28:28;8.50;;;2.50;;
4422;SDS011;2224;49.814;8.650;2023-09-19T02:30:55;4.43;;;2.67;;
4422;SDS011;2224;49.814;8.650;2023-09-19T02:33:21;5.03;;;2.53;;
4422;SDS011;2224;49.814;8.650;2023-09-19T02:35:46;3.73;;;2.30;;
4422;SDS011;2224;49.814;8.650;2023-09-19T02:38:12;3.77;;;2.43;;
4422;SDS011;2224;49.814;8.650;2023-09-19T02:40:37;3.20;;;2.33;;
4422;SDS011;2224;49.814;8.650;2023-09-19T02:43:03;8.37;;;2.40;;
4422;SDS011;2224;49.814;8.650;2023-09-19T02:45:30;5.60;;;2.43;;
4422;SDS011;2224;49.814;8.650;2023-09-19T02:47:55;2.60;;;2.40;;
4422;SDS011;2224;49.814;8.650;2023-09-19T02:50:22;3.57;;;2.40;;
4422;SDS011;2224;49.814;8.650;2023-09-19T02:52:47;6.77;;;3.93;;
4422;SDS011;2224;49.814;8.650;2023-09-19T02:55:16;4.20;;;2.40;;
4422;SDS011;2224;49.814;8.650;2023-09-19T02:57:49;3.10;;;2.53;;
4422;SDS011;2224;49.814;8.650;2023-09-19T03:00:16;6.00;;;2.90;;
4422;SDS011;2224;49.814;8.650;2023-09-19T03:02:45;3.43;;;2.80;;
4422;SDS011;2224;49.814;8.650;2023-09-19T03:05:11;3.83;;;2.40;;
4422;SDS011;2224;49.814;8.650;2023-09-19T03:07:37;5.50;;;2.50;;
4422;SDS011;2224;49.814;8.650;2023-09-19T03:10:03;5.10;;;3.30;;
4422;SDS011;2224;49.814;8.650;2023-09-19T03:12:30;2.67;;;2.43;;
4422;SDS011;2224;49.814;8.650;2023-09-19T03:14:56;4.40;;;2.23;;
4422;SDS011;2224;49.814;8.650;2023-09-19T03:17:22;4.20;;;2.80;;
4422;SDS011;2224;49.814;8.650;2023-09-19T03:19:47;3.80;;;3.07;;
4422;SDS011;2224;49.814;8.650;2023-09-19T03:22:13;4.00;;;3.20;;
4422;SDS011;2224;49.814;8.650;2023-09-19T03:24:39;7.50;;;3.23;;
4422;SDS011;2224;49.814;8.650;2023-09-19T03:27:04;4.33;;;3.17;;
4422;SDS011;2224;49.814;8.650;2023-09-19T03:29:30;5.20;;;3.20;;
4422;SDS011;2224;49.814;8.650;2023-09-19T03:31:55;3.03;;;2.73;;
4422;SDS011;2224;49.814;8.650;2023-09-19T03:34:20;4.53;;;3.00;;
4422;SDS011;2224;49.814;8.650;2023-09-19T03:36:46;4.93;;;3.73;;
4422;SDS011;2224;49.814;8.650;2023-09-19T03:39:12;3.87;;;3.10;;
4422;SDS011;2224;49.814;8.650;2023-09-19T03:41:37;3.70;;;3.40;;
4422;SDS011;2224;49.814;8.650;2023-09-19T03:44:03;4.97;;;3.60;;
4422;SDS011;2224;49.814;8.650;2023-09-19T03:46:28;5.03;;;3.03;;
4422;SDS011;2224;49.814;8.650;2023-09-19T03:48:55;5.33;;;3.50;;
4422;SDS011;2224;49.814;8.650;2023-09-19T03:51:20;8.10;;;3.70;;
4422;SDS011;2224;49.814;8.650;2023-09-19T03:53:46;6.03;;;3.50;;
4422;SDS011;2224;49.814;8.650;2023-09-19T03:56:14;4.43;;;3.40;;
4422;SDS011;2224;49.814;8.650;2023-09-19T03:58:39;6.20;;;3.77;;
4422;SDS011;2224;49.814;8.650;2023-09-19T04:01:05;5.30;;;3.80;;
4422;SDS011;2224;49.814;8.650;2023-09-19T04:03:32;4.03;;;3.20;;
4422;SDS011;2224;49.814;8.650;2023-09-19T04:06:14;4.90;;;3.77;;
4422;SDS011;2224;49.814;8.650;2023-09-19T04:08:40;4.87;;;3.70;;
4422;SDS011;2224;49.814;8.650;2023-09-19T04:11:06;6.63;;;3.87;;
4422;SDS011;2224;49.814;8.650;2023-09-19T04:13:31;5.17;;;3.63;;
4422;SDS011;2224;49.814;8.650;2023-09-19T04:15:57;4.93;;;3.97;;
4422;SDS011;2224;49.814;8.650;2023-09-19T04:18:22;3.87;;;3.57;;
4422;SDS011;2224;49.814;8.650;2023-09-19T04:20:52;3.80;;;3.27;;
4422;SDS011;2224;49.814;8.650;2023-09-19T04:23:17;6.20;;;4.23;;
4422;SDS011;2224;49.814;8.650;2023-09-19T04:25:45;7.97;;;4.40;;
4422;SDS011;2224;49.814;8.650;2023-09-19T04:28:10;4.17;;;3.77;;
4422;SDS011;2224;49.814;8.650;2023-09-19T04:30:36;4.53;;;3.50;;
4422;SDS011;2224;49.814;8.650;2023-09-19T04:33:02;6.77;;;3.97;;
4422;SDS011;2224;49.814;8.650;2023-09-19T04:35:27;4.33;;;3.90;;
4422;SDS011;2224;49.814;8.650;2023-09-19T04:37:56;4.47;;;3.87;;
4422;SDS011;2224;49.814;8.650;2023-09-19T04:40:22;5.27;;;4.77;;
4422;SDS011;2224;49.814;8.650;2023-09-19T04:42:55;5.20;;;4.57;;
4422;SDS011;2224;49.814;8.650;2023-09-19T04:45:25;4.20;;;3.80;;
4422;SDS011;2224;49.814;8.650;2023-09-19T04:47:51;4.63;;;4.00;;
4422;SDS011;2224;49.814;8.650;2023-09-19T04:50:16;6.00;;;5.37;;
4422;SDS011;2224;49.814;8.650;2023-09-19T04:52:42;5.60;;;4.57;;
4422;SDS011;2224;49.814;8.650;2023-09-19T04:55:12;6.13;;;5.13;;
4422;SDS011;2224;49.814;8.650;2023-09-19T04:57:42;6.43;;;4.57;;
4422;SDS011;2224;49.814;8.650;2023-09-19T05:00:18;6.00;;;4.57;;
4422;SDS011;2224;49.814;8.650;2023-09-19T05:02:52;5.67;;;5.10;;
4422;SDS011;2224;49.814;8.650;2023-09-19T05:05:18;6.80;;;5.67;;
4422;SDS011;2224;49.814;8.650;2023-09-19T05:07:44;6.40;;;5.80;;
4422;SDS011;2224;49.814;8.650;2023-09-19T05:10:10;9.70;;;5.77;;
4422;SDS011;2224;49.814;8.650;2023-09-19T05:12:37;6.30;;;5.30;;
4422;SDS011;2224;49.814;8.650;2023-09-19T05:15:02;7.40;;;5.67;;
4422;SDS011;2224;49.814;8.650;2023-09-19T05:17:28;5.53;;;5.03;;
4422;SDS011;2224;49.814;8.650;2023-09-19T05:19:54;6.30;;;5.70;;
4422;SDS011;2224;49.814;8.650;2023-09-19T05:22:19;5.60;;;5.10;;
4422;SDS011;2224;49.814;8.650;2023-09-19T05:24:44;6.77;;;5.47;;
4422;SDS011;2224;49.814;8.650;2023-09-19T05:27:13;6.47;;;5.87;;
4422;SDS011;2224;49.814;8.650;2023-09-19T05:29:41;8.67;;;6.40;;
4422;SDS011;2224;49.814;8.650;2023-09-19T05:32:07;6.10;;;5.50;;
4422;SDS011;2224;49.814;8.650;2023-09-19T05:34:33;6.33;;;5.50;;
4422;SDS011;2224;49.814;8.650;2023-09-19T05:36:58;6.77;;;6.10;;
4422;SDS011;2224;49.814;8.650;2023-09-19T05:39:23;8.63;;;6.27;;
4422;SDS011;2224;49.814;8.650;2023-09-19T05:41:49;9.73;;;5.90;;
4422;SDS011;2224;49.814;8.650;2023-09-19T05:44:14;8.13;;;5.83;;
4422;SDS011;2224;49.814;8.650;2023-09-19T05:46:39;6.53;;;5.93;;
4422;SDS011;2224;49.814;8.650;2023-09-19T05:49:05;9.43;;;6.33;;
4422;SDS011;2224;49.814;8.650;2023-09-19T05:51:30;8.10;;;6.17;;
4422;SDS011;2224;49.814;8.650;2023-09-19T05:53:56;6.00;;;5.40;;
4422;SDS011;2224;49.814;8.650;2023-09-19T05:56:22;9.97;;;5.70;;
4422;SDS011;2224;49.814;8.650;2023-09-19T05:58:47;8.23;;;6.67;;
4422;SDS011;2224;49.814;8.650;2023-09-19T06:01:13;5.77;;;5.23;;
4422;SDS011;2224;49.814;8.650;2023-09-19T06:03:38;8.07;;;6.73;;
4422;SDS011;2224;49.814;8.650;2023-09-19T06:06:03;9.20;;;6.13;;
4422;SDS011;2224;49.814;8.650;2023-09-19T06:08:31;8.37;;;5.33;;
4422;SDS011;2224;49.814;8.650;2023-09-19T06:10:57;5.90;;;4.40;;
4422;SDS011;2224;49.814;8.650;2023-09-19T06:13:22;8.30;;;5.40;;
4422;SDS011;2224;49.814;8.650;2023-09-19T06:15:50;6.47;;;5.10;;
4422;SDS011;2224;49.814;8.650;2023-09-19T06:18:16;9.13;;;5.03;;
4422;SDS011;2224;49.814;8.650;2023-09-19T06:20:47;5.80;;;5.30;;
4422;SDS011;2224;49.814;8.650;2023-09-19T06:23:16;6.90;;;5.07;;
4422;SDS011;2224;49.814;8.650;2023-09-19T06:25:42;10.93;;;6.27;;
4422;SDS011;2224;49.814;8.650;2023-09-19T06:28:08;8.93;;;5.37;;
4422;SDS011;2224;49.814;8.650;2023-09-19T06:30:36;8.17;;;5.83;;
4422;SDS011;2224;49.814;8.650;2023-09-19T06:33:05;5.83;;;5.23;;
4422;SDS011;2224;49.814;8.650;2023-09-19T06:35:31;7.10;;;5.30;;
4422;SDS011;2224;49.814;8.650;2023-09-19T06:37:57;7.23;;;5.40;;
4422;SDS011;2224;49.814;8.650;2023-09-19T06:40:23;7.03;;;5.37;;
4422;SDS011;2224;49.814;8.650;2023-09-19T06:42:50;6.10;;;4.73;;
4422;SDS011;2224;49.814;8.650;2023-09-19T06:45:16;5.40;;;4.53;;
4422;SDS011;2224;49.814;8.650;2023-09-19T06:47:49;11.93;;;5.80;;
4422;SDS011;2224;49.814;8.650;2023-09-19T06:50:21;8.63;;;4.73;;
4422;SDS011;2224;49.814;8.650;2023-09-19T06:52:48;7.67;;;5.30;;
4422;SDS011;2224;49.814;8.650;2023-09-19T06:55:15;6.20;;;4.70;;
4422;SDS011;2224;49.814;8.650;2023-09-19T06:57:44;7.80;;;5.33;;
4422;SDS011;2224;49.814;8.650;2023-09-19T07:00:10;9.77;;;5.53;;
4422;SDS011;2224;49.814;8.650;2023-09-19T07:03:00;6.50;;;5.23;;
4422;SDS011;2224;49.814;8.650;2023-09-19T07:05:28;6.77;;;5.00;;
4422;SDS011;2224;49.814;8.650;2023-09-19T07:07:56;5.70;;;5.10;;
4422;SDS011;2224;49.814;8.650;2023-09-19T07:10:24;4.37;;;3.80;;
4422;SDS011;2224;49.814;8.650;2023-09-19T07:15:25;3.93;;;3.53;;
4422;SDS011;2224;49.814;8.650;2023-09-19T07:17:52;6.93;;;4.23;;
4422;SDS011;2224;49.814;8.650;2023-09-19T07:20:18;5.47;;;3.80;;
4422;SDS011;2224;49.814;8.650;2023-09-19T07:22:44;4.50;;;3.63;;
4422;SDS011;2224;49.814;8.650;2023-09-19T07:25:09;4.20;;;3.80;;
4422;SDS011;2224;49.814;8.650;2023-09-19T07:27:35;4.20;;;3.30;;
4422;SDS011;2224;49.814;8.650;2023-09-19T07:30:00;5.00;;;3.47;;
4422;SDS011;2224;49.814;8.650;2023-09-19T07:32:25;4.40;;;3.40;;
4422;SDS011;2224;49.814;8.650;2023-09-19T07:34:51;4.00;;;3.37;;
4422;SDS011;2224;49.814;8.650;2023-09-19T07:37:16;5.53;;;3.33;;
4422;SDS011;2224;49.814;8.650;2023-09-19T07:39:42;4.00;;;3.30;;
4422;SDS011;2224;49.814;8.650;2023-09-19T07:42:08;4.13;;;3.50;;
4422;SDS011;2224;49.814;8.650;2023-09-19T07:44:34;8.90;;;3.73;;
4422;SDS011;2224;49.814;8.650;2023-09-19T07:47:01;4.90;;;3.57;;
4422;SDS011;2224;49.814;8.650;2023-09-19T07:49:28;5.30;;;3.20;;
4422;SDS011;2224;49.814;8.650;2023-09-19T07:51:53;3.27;;;2.97;;
4422;SDS011;2224;49.814;8.650;2023-09-19T07:54:19;5.63;;;2.90;;
4422;SDS011;2224;49.814;8.650;2023-09-19T07:56:46;3.97;;;3.33;;
4422;SDS011;2224;49.814;8.650;2023-09-19T07:59:11;4.07;;;2.97;;
4422;SDS011;2224;49.814;8.650;2023-09-19T08:01:38;5.17;;;2.97;;
4422;SDS011;2224;49.814;8.650;2023-09-19T08:04:06;6.97;;;3.40;;
4422;SDS011;2224;49.814;8.650;2023-09-19T08:06:32;5.97;;;3.30;;
4422;SDS011;2224;49.814;8.650;2023-09-19T08:08:57;3.73;;;3.20;;
4422;SDS011;2224;49.814;8.650;2023-09-19T08:11:25;7.70;;;3.37;;
4422;SDS011;2224;49.814;8.650;2023-09-19T08:13:55;4.63;;;3.37;;
4422;SDS011;2224;49.814;8.650;2023-09-19T08:16:21;5.70;;;4.03;;
4422;SDS011;2224;49.814;8.650;2023-09-19T08:18:47;5.73;;;3.10;;
4422;SDS011;2224;49.814;8.650;2023-09-19T08:21:13;7.20;;;3.57;;
4422;SDS011;2224;49.814;8.650;2023-09-19T08:23:40;5.07;;;3.50;;
4422;SDS011;2224;49.814;8.650;2023-09-19T08:26:06;4.53;;;3.80;;
4422;SDS011;2224;49.814;8.650;2023-09-19T08:28:32;8.90;;;3.90;;
4422;SDS011;2224;49.814;8.650;2023-09-19T08:31:04;6.67;;;4.13;;
4422;SDS011;2224;49.814;8.650;2023-09-19T08:33:33;4.00;;;3.50;;
4422;SDS011;2224;49.814;8.650;2023-09-19T08:36:00;7.00;;;3.70;;
4422;SDS011;2224;49.814;8.650;2023-09-19T08:38:26;4.20;;;3.20;;
4422;SDS011;2224;49.814;8.650;2023-09-19T08:40:57;6.53;;;3.70;;
4422;SDS011;2224;49.814;8.650;2023-09-19T08:43:23;4.70;;;3.17;;
4422;SDS011;2224;49.814;8.650;2023-09-19T08:45:49;3.67;;;3.30;;
4422;SDS011;2224;49.814;8.650;2023-09-19T08:48:25;5.60;;;3.03;;
4422;SDS011;2224;49.814;8.650;2023-09-19T08:51:02;5.63;;;3.50;;
4422;SDS011;2224;49.814;8.650;2023-09-19T08:53:41;5.60;;;3.13;;
4422;SDS011;2224;49.814;8.650;2023-09-19T08:56:08;3.40;;;2.63;;
4422;SDS011;2224;49.814;8.650;2023-09-19T08:58:39;4.10;;;3.30;;
4422;SDS011;2224;49.814;8.650;2023-09-19T09:01:08;3.73;;;3.03;;
4422;SDS011;2224;49.814;8.650;2023-09-19T09:03:37;4.87;;;2.73;;
4422;SDS011;2224;49.814;8.650;2023-09-19T09:06:02;4.47;;;3.40;;
4422;SDS011;2224;49.814;8.650;2023-09-19T09:08:28;3.67;;;2.73;;
4422;SDS011;2224;49.814;8.650;2023-09-19T09:10:55;4.10;;;2.50;;
4422;SDS011;2224;49.814;8.650;2023-09-19T09:13:22;4.33;;;3.33;;
4422;SDS011;2224;49.814;8.650;2023-09-19T09:15:51;4.43;;;2.43;;
4422;SDS011;2224;49.814;8.650;2023-09-19T09:18:16;3.97;;;2.90;;
4422;SDS011;2224;49.814;8.650;2023-09-19T09:20:42;4.37;;;2.70;;
4422;SDS011;2224;49.814;8.650;2023-09-19T09:23:09;6.60;;;2.47;;
4422;SDS011;2224;49.814;8.650;2023-09-19T09:25:53;1.87;;;1.67;;
4422;SDS011;2224;49.814;8.650;2023-09-19T09:28:26;4.17;;;1.97;;
4422;SDS011;2224;49.814;8.650;2023-09-19T09:30:53;3.07;;;1.93;;
4422;SDS011;2224;49.814;8.650;2023-09-19T09:33:19;6.03;;;2.00;;
4422;SDS011;2224;49.814;8.650;2023-09-19T09:35:57;4.50;;;2.10;;
4422;SDS011;2224;49.814;8.650;2023-09-19T09:38:28;6.77;;;2.00;;
4422;SDS011;2224;49.814;8.650;2023-09-19T09:40:58;3.87;;;1.93;;
4422;SDS011;2224;49.814;8.650;2023-09-19T09:43:39;5.70;;;1.93;;
4422;SDS011;2224;49.814;8.650;2023-09-19T09:46:13;2.70;;;1.80;;
4422;SDS011;2224;49.814;8.650;2023-09-19T09:48:55;3.17;;;2.23;;
4422;SDS011;2224;49.814;8.650;2023-09-19T09:54:32;4.13;;;2.10;;
4422;SDS011;2224;49.814;8.650;2023-09-19T09:57:01;5.13;;;2.30;;
4422;SDS011;2224;49.814;8.650;2023-09-19T09:59:46;4.80;;;2.40;;
4422;SDS011;2224;49.814;8.650;2023-09-19T10:02:15;3.40;;;2.00;;
4422;SDS011;2224;49.814;8.650;2023-09-19T10:05:11;4.33;;;2.20;;
4422;SDS011;2224;49.814;8.650;2023-09-19T10:07:50;5.83;;;2.17;;
4422;SDS011;2224;49.814;8.650;2023-09-19T10:13:03;7.50;;;2.23;;
4422;SDS011;2224;49.814;8.650;2023-09-19T10:15:32;4.53;;;1.87;;
4422;SDS011;2224;49.814;8.650;2023-09-19T10:17:58;4.00;;;2.30;;
4422;SDS011;2224;49.814;8.650;2023-09-19T10:20:26;7.73;;;2.43;;
4422;SDS011;2224;49.814;8.650;2023-09-19T10:23:10;2.73;;;2.20;;
4422;SDS011;2224;49.814;8.650;2023-09-19T10:25:38;5.23;;;2.10;;
4422;SDS011;2224;49.814;8.650;2023-09-19T10:28:05;6.93;;;2.70;;
4422;SDS011;2224;49.814;8.650;2023-09-19T10:30:36;5.80;;;1.90;;
4422;SDS011;2224;49.814;8.650;2023-09-19T10:33:09;6.00;;;2.07;;
4422;SDS011;2224;49.814;8.650;2023-09-19T10:35:36;7.70;;;2.97;;
4422;SDS011;2224;49.814;8.650;2023-09-19T10:38:05;5.17;;;2.40;;
4422;SDS011;2224;49.814;8.650;2023-09-19T10:40:32;4.17;;;2.03;;
4422;SDS011;2224;49.814;8.650;2023-09-19T10:43:02;3.80;;;1.87;;
4422;SDS011;2224;49.814;8.650;2023-09-19T10:45:32;8.00;;;2.30;;
4422;SDS011;2224;49.814;8.650;2023-09-19T10:47:59;8.50;;;2.37;;
4422;SDS011;2224;49.814;8.650;2023-09-19T10:50:25;6.83;;;2.90;;
4422;SDS011;2224;49.814;8.650;2023-09-19T10:52:53;4.23;;;2.10;;
4422;SDS011;2224;49.814;8.650;2023-09-19T10:55:23;4.87;;;2.17;;
4422;SDS011;2224;49.814;8.650;2023-09-19T10:57:50;4.87;;;2.20;;
4422;SDS011;2224;49.814;8.650;2023-09-19T11:00:16;4.83;;;2.00;;
4422;SDS011;2224;49.814;8.650;2023-09-19T11:06:08;6.73;;;2.23;;
4422;SDS011;2224;49.814;8.650;2023-09-19T11:30:37;3.90;;;2.43;;
4422;SDS011;2224;49.814;8.650;2023-09-19T11:36:07;5.10;;;2.07;;
4422;SDS011;2224;49.814;8.650;2023-09-19T11:49:16;8.43;;;2.67;;
4422;SDS011;2224;49.814;8.650;2023-09-19T11:51:46;3.90;;;2.23;;
4422;SDS011;2224;49.814;8.650;2023-09-19T11:54:13;4.10;;;2.27;;
4422;SDS011;2224;49.814;8.650;2023-09-19T11:56:43;3.60;;;1.83;;
4422;SDS011;2224;49.814;8.650;2023-09-19T11:59:10;3.03;;;1.50;;
4422;SDS011;2224;49.814;8.650;2023-09-19T12:01:35;7.90;;;2.20;;
4422;SDS011;2224;49.814;8.650;2023-09-19T12:04:05;5.20;;;1.87;;
4422;SDS011;2224;49.814;8.650;2023-09-19T12:06:32;5.17;;;1.70;;
4422;SDS011;2224;49.814;8.650;2023-09-19T12:08:58;2.90;;;1.60;;
4422;SDS011;2224;49.814;8.650;2023-09-19T12:11:30;4.67;;;1.63;;
4422;SDS011;2224;49.814;8.650;2023-09-19T12:14:00;3.63;;;1.80;;
4422;SDS011;2224;49.814;8.650;2023-09-19T12:16:26;5.30;;;2.20;;
4422;SDS011;2224;49.814;8.650;2023-09-19T12:18:55;6.67;;;2.17;;
4422;SDS011;2224;49.814;8.650;2023-09-19T12:21:31;3.43;;;1.40;;
4422;SDS011;2224;49.814;8.650;2023-09-19T12:24:07;5.30;;;1.80;;
4422;SDS011;2224;49.814;8.650;2023-09-19T12:26:47;3.77;;;1.90;;
4422;SDS011;2224;49.814;8.650;2023-09-19T12:29:20;2.80;;;1.97;;
4422;SDS011;2224;49.814;8.650;2023-09-19T12:31:56;3.13;;;1.63;;
4422;SDS011;2224;49.814;8.650;2023-09-19T12:34:29;2.67;;;1.40;;
4422;SDS011;2224;49.814;8.650;2023-09-19T12:39:38;10.03;;;1.80;;
4422;SDS011;2224;49.814;8.650;2023-09-19T12:42:10;3.70;;;1.80;;
4422;SDS011;2224;49.814;8.650;2023-09-19T12:44:40;4.30;;;1.50;;
4422;SDS011;2224;49.814;8.650;2023-09-19T12:47:08;3.77;;;1.77;;
4422;SDS011;2224;49.814;8.650;2023-09-19T12:52:51;5.13;;;1.53;;
4422;SDS011;2224;49.814;8.650;2023-09-19T12:55:21;11.23;;;2.07;;
4422;SDS011;2224;49.814;8.650;2023-09-19T12:57:55;4.43;;;1.90;;
4422;SDS011;2224;49.814;8.650;2023-09-19T13:00:38;2.93;;;1.43;;
4422;SDS011;2224;49.814;8.650;2023-09-19T13:03:09;2.80;;;1.70;;
4422;SDS011;2224;49.814;8.650;2023-09-19T13:08:23;2.10;;;1.30;;
4422;SDS011;2224;49.814;8.650;2023-09-19T13:13:37;3.43;;;1.70;;
4422;SDS011;2224;49.814;8.650;2023-09-19T13:16:06;3.87;;;1.67;;
4422;SDS011;2224;49.814;8.650;2023-09-19T13:18:47;5.43;;;2.20;;
4422;SDS011;2224;49.814;8.650;2023-09-19T13:21:16;2.43;;;1.40;;
4422;SDS011;2224;49.814;8.650;2023-09-19T13:23:55;4.27;;;1.77;;
4422;SDS011;2224;49.814;8.650;2023-09-19T13:26:27;6.60;;;1.47;;
4422;SDS011;2224;49.814;8.650;2023-09-19T13:28:53;1.90;;;1.60;;
4422;SDS011;2224;49.814;8.650;2023-09-19T13:31:19;2.23;;;1.77;;
4422;SDS011;2224;49.814;8.650;2023-09-19T13:33:45;3.03;;;1.90;;
4422;SDS011;2224;49.814;8.650;2023-09-19T13:36:11;2.73;;;1.87;;
4422;SDS011;2224;49.814;8.650;2023-09-19T13:38:38;2.20;;;1.53;;
4422;SDS011;2224;49.814;8.650;2023-09-19T13:41:03;4.90;;;1.90;;
4422;SDS011;2224;49.814;8.650;2023-09-19T13:43:29;5.47;;;1.77;;
4422;SDS011;2224;49.814;8.650;2023-09-19T13:45:54;2.13;;;1.50;;
4422;SDS011;2224;49.814;8.650;2023-09-19T13:48:19;5.83;;;1.87;;
4422;SDS011;2224;49.814;8.650;2023-09-19T13:50:47;3.00;;;1.40;;
4422;SDS011;2224;49.814;8.650;2023-09-19T13:53:13;3.10;;;1.73;;
4422;SDS011;2224;49.814;8.650;2023-09-19T13:55:38;3.93;;;1.77;;
4422;SDS011;2224;49.814;8.650;2023-09-19T13:58:04;1.60;;;1.50;;
4422;SDS011;2224;49.814;8.650;2023-09-19T14:00:31;3.13;;;1.60;;
4422;SDS011;2224;49.814;8.650;2023-09-19T14:02:59;3.83;;;1.40;;
4422;SDS011;2224;49.814;8.650;2023-09-19T14:05:25;2.70;;;1.50;;
4422;SDS011;2224;49.814;8.650;2023-09-19T14:07:52;3.10;;;1.87;;
4422;SDS011;2224;49.814;8.650;2023-09-19T14:10:19;3.53;;;1.80;;
4422;SDS011;2224;49.814;8.650;2023-09-19T14:12:45;2.60;;;1.73;;
4422;SDS011;2224;49.814;8.650;2023-09-19T14:15:11;1.83;;;1.73;;
4422;SDS011;2224;49.814;8.650;2023-09-19T14:17:37;2.73;;;1.50;;
4422;SDS011;2224;49.814;8.650;2023-09-19T14:20:03;4.43;;;1.37;;
4422;SDS011;2224;49.814;8.650;2023-09-19T14:22:30;2.60;;;1.60;;
4422;SDS011;2224;49.814;8.650;2023-09-19T14:24:56;3.00;;;1.53;;
4422;SDS011;2224;49.814;8.650;2023-09-19T14:27:21;1.93;;;1.10;;
4422;SDS011;2224;49.814;8.650;2023-09-19T14:29:47;2.00;;;1.40;;
4422;SDS011;2224;49.814;8.650;2023-09-19T14:32:12;2.50;;;1.33;;
4422;SDS011;2224;49.814;8.650;2023-09-19T14:34:37;2.53;;;1.63;;
4422;SDS011;2224;49.814;8.650;2023-09-19T14:37:07;2.33;;;1.30;;
4422;SDS011;2224;49.814;8.650;2023-09-19T14:39:32;3.23;;;1.70;;
4422;SDS011;2224;49.814;8.650;2023-09-19T14:41:58;2.60;;;1.50;;
4422;SDS011;2224;49.814;8.650;2023-09-19T14:44:23;2.43;;;1.57;;
4422;SDS011;2224;49.814;8.650;2023-09-19T14:46:48;2.60;;;1.43;;
4422;SDS011;2224;49.814;8.650;2023-09-19T14:49:14;2.87;;;1.20;;
4422;SDS011;2224;49.814;8.650;2023-09-19T14:51:40;1.83;;;1.47;;
4422;SDS011;2224;49.814;8.650;2023-09-19T14:54:06;2.13;;;1.30;;
4422;SDS011;2224;49.814;8.650;2023-09-19T14:56:33;4.57;;;1.30;;
4422;SDS011;2224;49.814;8.650;2023-09-19T14:58:58;3.10;;;1.50;;
4422;SDS011;2224;49.814;8.650;2023-09-19T15:01:23;2.93;;;1.90;;
4422;SDS011;2224;49.814;8.650;2023-09-19T15:03:49;2.03;;;1.30;;
4422;SDS011;2224;49.814;8.650;2023-09-19T15:06:14;4.10;;;1.53;;
4422;SDS011;2224;49.814;8.650;2023-09-19T15:08:43;2.23;;;1.40;;
4422;SDS011;2224;49.814;8.650;2023-09-19T15:11:12;3.33;;;1.40;;
4422;SDS011;2224;49.814;8.650;2023-09-19T15:13:42;4.23;;;1.50;;
4422;SDS011;2224;49.814;8.650;2023-09-19T15:16:08;2.37;;;1.17;;
4422;SDS011;2224;49.814;8.650;2023-09-19T15:18:34;3.30;;;1.40;;
4422;SDS011;2224;49.814;8.650;2023-09-19T15:21:05;6.10;;;2.03;;
4422;SDS011;2224;49.814;8.650;2023-09-19T15:23:31;2.83;;;1.40;;
4422;SDS011;2224;49.814;8.650;2023-09-19T15:25:59;2.20;;;1.30;;
4422;SDS011;2224;49.814;8.650;2023-09-19T15:28:26;2.53;;;1.70;;
4422;SDS011;2224;49.814;8.650;2023-09-19T15:30:57;1.67;;;1.10;;
4422;SDS011;2224;49.814;8.650;2023-09-19T15:33:29;1.80;;;1.20;;
4422;SDS011;2224;49.814;8.650;2023-09-19T15:38:31;2.57;;;1.30;;
4422;SDS011;2224;49.814;8.650;2023-09-19T15:40:57;2.47;;;1.00;;
4422;SDS011;2224;49.814;8.650;2023-09-19T15:43:23;3.60;;;1.27;;
4422;SDS011;2224;49.814;8.650;2023-09-19T15:45:49;7.60;;;2.10;;
4422;SDS011;2224;49.814;8.650;2023-09-19T15:48:14;2.40;;;1.03;;
4422;SDS011;2224;49.814;8.650;2023-09-19T15:50:39;2.30;;;1.30;;
4422;SDS011;2224;49.814;8.650;2023-09-19T15:53:07;9.33;;;1.30;;
4422;SDS011;2224;49.814;8.650;2023-09-19T15:55:35;1.20;;;1.10;;
4422;SDS011;2224;49.814;8.650;2023-09-19T15:58:04;1.30;;;0.97;;
4422;SDS011;2224;49.814;8.650;2023-09-19T16:00:31;2.50;;;1.23;;
4422;SDS011;2224;49.814;8.650;2023-09-19T16:02:59;3.20;;;1.10;;
4422;SDS011;2224;49.814;8.650;2023-09-19T16:05:28;3.70;;;1.03;;
4422;SDS011;2224;49.814;8.650;2023-09-19T16:07:53;3.07;;;1.37;;
4422;SDS011;2224;49.814;8.650;2023-09-19T16:10:19;2.13;;;1.30;;
4422;SDS011;2224;49.814;8.650;2023-09-19T16:12:44;2.97;;;1.17;;
4422;SDS011;2224;49.814;8.650;2023-09-19T16:15:09;1.60;;;1.40;;
4422;SDS011;2224;49.814;8.650;2023-09-19T16:17:39;3.87;;;1.30;;
4422;SDS011;2224;49.814;8.650;2023-09-19T16:20:05;3.87;;;1.30;;
4422;SDS011;2224;49.814;8.650;2023-09-19T16:22:38;5.60;;;1.87;;
4422;SDS011;2224;49.814;8.650;2023-09-19T16:25:06;2.23;;;1.27;;
4422;SDS011;2224;49.814;8.650;2023-09-19T16:27:31;1.70;;;1.07;;
4422;SDS011;2224;49.814;8.650;2023-09-19T16:29:56;3.73;;;1.50;;
4422;SDS011;2224;49.814;8.650;2023-09-19T16:32:22;2.30;;;1.33;;
4422;SDS011;2224;49.814;8.650;2023-09-19T16:34:47;1.93;;;1.10;;
4422;SDS011;2224;49.814;8.650;2023-09-19T16:37:12;3.20;;;1.00;;